sensor_id;sensor_type;location;lat;lon;timestamp;P1;durP1;ratioP1;P2;durP2;ratioP2
67429;SDS011;54298;52.076;5.264;2023-07-20T00:01:12;6.8;;;2.5;;
67429;SDS011;54298;52.076;5.264;2023-07-20T00:02:49;5.6;;;2.4;;
67429;SDS011;54298;52.076;5.264;2023-07-20T00:06:02;4.2;;;2.21;;
67429;SDS011;54298;52.076;5.264;2023-07-20T00:07:38;5.9;;;2.31;;
67429;SDS011;54298;52.076;5.264;2023-07-20T00:09:14;4.41;;;2.21;;
67429;SDS011;54298;52.076;5.264;2023-07-20T00:12:26;4.3;;;2.0;;
67429;SDS011;54298;52.076;5.264;2023-07-20T00:14:03;3.9;;;2.1;;
67429;SDS011;54298;52.076;5.264;2023-07-20T00:15:39;4.91;;;2.21;;
67429;SDS011;54298;52.076;5.264;2023-07-20T00:17:15;5.2;;;2.21;;
67429;SDS011;54298;52.076;5.264;2023-07-20T00:20:27;5.0;;;2.1;;
67429;SDS011;54298;52.076;5.264;2023-07-20T00:22:03;2.9;;;1.6;;
67429;SDS011;54298;52.076;5.264;2023-07-20T00:23:39;3.6;;;1.8;;
67429;SDS011;54298;52.076;5.264;2023-07-20T00:26:51;4.3;;;2.0;;
67429;SDS011;54298;52.076;5.264;2023-07-20T00:30:04;4.2;;;1.9;;
67429;SDS011;54298;52.076;5.264;2023-07-20T00:33:17;3.5;;;1.7;;
67429;SDS011;54298;52.076;5.264;2023-07-20T00:34:54;3.8;;;2.1;;
67429;SDS011;54298;52.076;5.264;2023-07-20T00:36:30;5.2;;;2.1;;
67429;SDS011;54298;52.076;5.264;2023-07-20T00:38:06;6.0;;;2.21;;
67429;SDS011;54298;52.076;5.264;2023-07-20T00:41:18;3.3;;;2.0;;
67429;SDS011;54298;52.076;5.264;2023-07-20T00:42:55;4.2;;;1.8;;
67429;SDS011;54298;52.076;5.264;2023-07-20T00:44:31;3.7;;;2.0;;
67429;SDS011;54298;52.076;5.264;2023-07-20T00:47:45;3.2;;;1.7;;
67429;SDS011;54298;52.076;5.264;2023-07-20T00:49:22;3.0;;;1.6;;
67429;SDS011;54298;52.076;5.264;2023-07-20T00:50:58;4.1;;;1.9;;
67429;SDS011;54298;52.076;5.264;2023-07-20T00:54:14;4.1;;;1.8;;
67429;SDS011;54298;52.076;5.264;2023-07-20T00:55:51;3.6;;;1.7;;
67429;SDS011;54298;52.076;5.264;2023-07-20T00:57:27;4.2;;;2.0;;
67429;SDS011;54298;52.076;5.264;2023-07-20T00:59:03;3.1;;;1.5;;
67429;SDS011;54298;52.076;5.264;2023-07-20T01:02:16;2.5;;;1.5;;
67429;SDS011;54298;52.076;5.264;2023-07-20T01:03:52;3.0;;;1.5;;
67429;SDS011;54298;52.076;5.264;2023-07-20T01:05:32;3.0;;;1.6;;
67429;SDS011;54298;52.076;5.264;2023-07-20T01:09:02;2.21;;;1.5;;
67429;SDS011;54298;52.076;5.264;2023-07-20T01:10:49;2.9;;;1.5;;
67429;SDS011;54298;52.076;5.264;2023-07-20T01:12:35;4.2;;;1.5;;
67429;SDS011;54298;52.076;5.264;2023-07-20T01:14:17;2.1;;;1.3;;
67429;SDS011;54298;52.076;5.264;2023-07-20T01:15:56;2.1;;;1.3;;
67429;SDS011;54298;52.076;5.264;2023-07-20T01:19:12;2.7;;;1.7;;
67429;SDS011;54298;52.076;5.264;2023-07-20T01:20:48;2.8;;;1.7;;
67429;SDS011;54298;52.076;5.264;2023-07-20T01:22:31;6.4;;;1.9;;
67429;SDS011;54298;52.076;5.264;2023-07-20T01:24:32;4.0;;;1.4;;
67429;SDS011;54298;52.076;5.264;2023-07-20T01:26:59;3.4;;;1.7;;
67429;SDS011;54298;52.076;5.264;2023-07-20T01:30:10;2.4;;;1.4;;
67429;SDS011;54298;52.076;5.264;2023-07-20T01:32:00;2.31;;;1.5;;
67429;SDS011;54298;52.076;5.264;2023-07-20T01:33:39;3.2;;;1.3;;
67429;SDS011;54298;52.076;5.264;2023-07-20T01:35:17;2.31;;;1.5;;
67429;SDS011;54298;52.076;5.264;2023-07-20T01:36:57;3.1;;;1.5;;
67429;SDS011;54298;52.076;5.264;2023-07-20T01:40:12;2.21;;;1.6;;
67429;SDS011;54298;52.076;5.264;2023-07-20T01:41:50;3.2;;;1.5;;
67429;SDS011;54298;52.076;5.264;2023-07-20T01:43:26;3.8;;;1.6;;
67429;SDS011;54298;52.076;5.264;2023-07-20T01:45:02;3.4;;;1.6;;
67429;SDS011;54298;52.076;5.264;2023-07-20T01:48:15;4.2;;;1.4;;
67429;SDS011;54298;52.076;5.264;2023-07-20T01:49:51;2.5;;;1.3;;
67429;SDS011;54298;52.076;5.264;2023-07-20T01:51:27;1.9;;;1.4;;
67429;SDS011;54298;52.076;5.264;2023-07-20T01:54:39;1.9;;;1.4;;
67429;SDS011;54298;52.076;5.264;2023-07-20T01:56:16;2.1;;;1.4;;
67429;SDS011;54298;52.076;5.264;2023-07-20T01:57:52;2.31;;;1.5;;
67429;SDS011;54298;52.076;5.264;2023-07-20T02:01:05;1.8;;;1.3;;
67429;SDS011;54298;52.076;5.264;2023-07-20T02:02:41;3.6;;;1.6;;
67429;SDS011;54298;52.076;5.264;2023-07-20T02:04:17;2.21;;;1.6;;
67429;SDS011;54298;52.076;5.264;2023-07-20T02:07:29;1.9;;;1.3;;
67429;SDS011;54298;52.076;5.264;2023-07-20T02:09:05;3.5;;;1.6;;
67429;SDS011;54298;52.076;5.264;2023-07-20T02:10:42;2.21;;;1.2;;
67429;SDS011;54298;52.076;5.264;2023-07-20T02:12:21;2.9;;;1.8;;
67429;SDS011;54298;52.076;5.264;2023-07-20T02:15:33;2.4;;;1.6;;
67429;SDS011;54298;52.076;5.264;2023-07-20T02:17:09;3.2;;;1.7;;
67429;SDS011;54298;52.076;5.264;2023-07-20T02:18:45;2.8;;;1.5;;
67429;SDS011;54298;52.076;5.264;2023-07-20T02:21:57;2.4;;;1.5;;
67429;SDS011;54298;52.076;5.264;2023-07-20T02:23:33;1.9;;;1.3;;
67429;SDS011;54298;52.076;5.264;2023-07-20T02:25:10;2.21;;;1.5;;
67429;SDS011;54298;52.076;5.264;2023-07-20T02:28:22;3.2;;;1.7;;
67429;SDS011;54298;52.076;5.264;2023-07-20T02:29:58;2.21;;;1.5;;
67429;SDS011;54298;52.076;5.264;2023-07-20T02:31:34;3.1;;;1.8;;
67429;SDS011;54298;52.076;5.264;2023-07-20T02:33:10;2.5;;;1.5;;
67429;SDS011;54298;52.076;5.264;2023-07-20T02:36:22;2.1;;;1.5;;
67429;SDS011;54298;52.076;5.264;2023-07-20T02:37:58;3.1;;;1.7;;
67429;SDS011;54298;52.076;5.264;2023-07-20T02:39:34;4.7;;;1.9;;
67429;SDS011;54298;52.076;5.264;2023-07-20T02:42:49;4.7;;;1.9;;
67429;SDS011;54298;52.076;5.264;2023-07-20T02:44:25;3.0;;;2.0;;
67429;SDS011;54298;52.076;5.264;2023-07-20T02:46:01;2.31;;;1.7;;
67429;SDS011;54298;52.076;5.264;2023-07-20T02:49:13;2.8;;;1.8;;
67429;SDS011;54298;52.076;5.264;2023-07-20T02:50:49;2.6;;;1.8;;
67429;SDS011;54298;52.076;5.264;2023-07-20T02:52:25;4.1;;;1.7;;
67429;SDS011;54298;52.076;5.264;2023-07-20T02:55:38;2.1;;;1.7;;
67429;SDS011;54298;52.076;5.264;2023-07-20T02:57:14;4.2;;;2.1;;
67429;SDS011;54298;52.076;5.264;2023-07-20T02:58:50;3.2;;;1.9;;
67429;SDS011;54298;52.076;5.264;2023-07-20T03:00:27;2.21;;;1.6;;
67429;SDS011;54298;52.076;5.264;2023-07-20T03:03:39;2.9;;;1.9;;
67429;SDS011;54298;52.076;5.264;2023-07-20T03:05:15;2.1;;;1.5;;
67429;SDS011;54298;52.076;5.264;2023-07-20T03:06:51;3.0;;;1.7;;
67429;SDS011;54298;52.076;5.264;2023-07-20T03:10:04;3.1;;;1.7;;
67429;SDS011;54298;52.076;5.264;2023-07-20T03:11:41;2.21;;;1.6;;
67429;SDS011;54298;52.076;5.264;2023-07-20T03:13:17;5.3;;;1.6;;
67429;SDS011;54298;52.076;5.264;2023-07-20T03:16:29;3.5;;;1.4;;
67429;SDS011;54298;52.076;5.264;2023-07-20T03:18:05;2.6;;;1.5;;
67429;SDS011;54298;52.076;5.264;2023-07-20T03:19:41;2.8;;;1.5;;
67429;SDS011;54298;52.076;5.264;2023-07-20T03:21:17;2.1;;;1.5;;
67429;SDS011;54298;52.076;5.264;2023-07-20T03:24:30;2.9;;;1.9;;
67429;SDS011;54298;52.076;5.264;2023-07-20T03:26:06;4.91;;;1.8;;
67429;SDS011;54298;52.076;5.264;2023-07-20T03:27:42;2.6;;;1.4;;
67429;SDS011;54298;52.076;5.264;2023-07-20T03:30:54;3.8;;;1.5;;
67429;SDS011;54298;52.076;5.264;2023-07-20T03:32:31;2.9;;;1.7;;
67429;SDS011;54298;52.076;5.264;2023-07-20T03:34:07;2.8;;;1.9;;
67429;SDS011;54298;52.076;5.264;2023-07-20T03:37:19;4.0;;;1.7;;
67429;SDS011;54298;52.076;5.264;2023-07-20T03:38:56;2.21;;;1.5;;
67429;SDS011;54298;52.076;5.264;2023-07-20T03:40:32;5.2;;;1.7;;
67429;SDS011;54298;52.076;5.264;2023-07-20T03:43:44;2.7;;;1.4;;
67429;SDS011;54298;52.076;5.264;2023-07-20T03:45:20;3.5;;;1.6;;
67429;SDS011;54298;52.076;5.264;2023-07-20T03:46:56;4.0;;;1.9;;
67429;SDS011;54298;52.076;5.264;2023-07-20T03:48:32;1.8;;;1.6;;
67429;SDS011;54298;52.076;5.264;2023-07-20T03:51:45;3.5;;;1.9;;
67429;SDS011;54298;52.076;5.264;2023-07-20T03:54:58;3.8;;;1.6;;
67429;SDS011;54298;52.076;5.264;2023-07-20T03:58:10;3.4;;;1.3;;
67429;SDS011;54298;52.076;5.264;2023-07-20T03:59:46;4.0;;;2.0;;
67429;SDS011;54298;52.076;5.264;2023-07-20T04:01:24;3.8;;;1.8;;
67429;SDS011;54298;52.076;5.264;2023-07-20T04:04:36;2.7;;;1.8;;
67429;SDS011;54298;52.076;5.264;2023-07-20T04:06:12;3.3;;;1.9;;
67429;SDS011;54298;52.076;5.264;2023-07-20T04:07:48;2.5;;;1.6;;
67429;SDS011;54298;52.076;5.264;2023-07-20T04:09:24;3.8;;;2.0;;
67429;SDS011;54298;52.076;5.264;2023-07-20T04:12:37;2.4;;;1.8;;
67429;SDS011;54298;52.076;5.264;2023-07-20T04:14:13;2.1;;;1.6;;
67429;SDS011;54298;52.076;5.264;2023-07-20T04:15:49;2.4;;;1.6;;
67429;SDS011;54298;52.076;5.264;2023-07-20T04:19:01;4.2;;;1.5;;
67429;SDS011;54298;52.076;5.264;2023-07-20T04:20:37;3.1;;;1.8;;
67429;SDS011;54298;52.076;5.264;2023-07-20T04:22:13;2.9;;;1.7;;
67429;SDS011;54298;52.076;5.264;2023-07-20T04:25:26;1.9;;;1.6;;
67429;SDS011;54298;52.076;5.264;2023-07-20T04:27:02;3.3;;;1.9;;
67429;SDS011;54298;52.076;5.264;2023-07-20T04:28:38;2.21;;;1.7;;
67429;SDS011;54298;52.076;5.264;2023-07-20T04:31:53;6.2;;;1.7;;
67429;SDS011;54298;52.076;5.264;2023-07-20T04:33:29;3.1;;;1.6;;
67429;SDS011;54298;52.076;5.264;2023-07-20T04:35:05;2.8;;;1.7;;
67429;SDS011;54298;52.076;5.264;2023-07-20T04:36:42;4.0;;;1.7;;
67429;SDS011;54298;52.076;5.264;2023-07-20T04:39:56;3.2;;;1.7;;
67429;SDS011;54298;52.076;5.264;2023-07-20T04:41:32;1.8;;;1.4;;
67429;SDS011;54298;52.076;5.264;2023-07-20T04:43:08;3.2;;;1.6;;
67429;SDS011;54298;52.076;5.264;2023-07-20T04:46:20;2.0;;;1.4;;
67429;SDS011;54298;52.076;5.264;2023-07-20T04:47:56;2.9;;;1.8;;
67429;SDS011;54298;52.076;5.264;2023-07-20T04:49:32;2.6;;;1.5;;
67429;SDS011;54298;52.076;5.264;2023-07-20T04:52:45;2.8;;;1.5;;
67429;SDS011;54298;52.076;5.264;2023-07-20T04:54:21;3.3;;;1.6;;
67429;SDS011;54298;52.076;5.264;2023-07-20T04:55:57;1.7;;;1.4;;
67429;SDS011;54298;52.076;5.264;2023-07-20T04:57:33;2.5;;;1.7;;
67429;SDS011;54298;52.076;5.264;2023-07-20T05:00:45;3.5;;;1.7;;
67429;SDS011;54298;52.076;5.264;2023-07-20T05:02:21;2.4;;;1.6;;
67429;SDS011;54298;52.076;5.264;2023-07-20T05:03:57;3.1;;;1.7;;
67429;SDS011;54298;52.076;5.264;2023-07-20T05:07:10;3.2;;;1.7;;
67429;SDS011;54298;52.076;5.264;2023-07-20T05:08:46;2.31;;;1.6;;
67429;SDS011;54298;52.076;5.264;2023-07-20T05:10:22;2.21;;;1.7;;
67429;SDS011;54298;52.076;5.264;2023-07-20T05:13:35;3.2;;;1.7;;
67429;SDS011;54298;52.076;5.264;2023-07-20T05:15:12;3.4;;;1.8;;
67429;SDS011;54298;52.076;5.264;2023-07-20T05:16:48;3.0;;;1.7;;
67429;SDS011;54298;52.076;5.264;2023-07-20T05:18:24;2.6;;;1.6;;
67429;SDS011;54298;52.076;5.264;2023-07-20T05:21:38;2.8;;;1.7;;
67429;SDS011;54298;52.076;5.264;2023-07-20T05:23:14;1.6;;;1.3;;
67429;SDS011;54298;52.076;5.264;2023-07-20T05:24:50;5.0;;;2.1;;
67429;SDS011;54298;52.076;5.264;2023-07-20T05:28:02;2.9;;;1.7;;
67429;SDS011;54298;52.076;5.264;2023-07-20T05:29:42;2.6;;;2.0;;
67429;SDS011;54298;52.076;5.264;2023-07-20T05:31:20;2.7;;;1.4;;
67429;SDS011;54298;52.076;5.264;2023-07-20T05:34:32;2.5;;;1.6;;
67429;SDS011;54298;52.076;5.264;2023-07-20T05:36:08;3.7;;;2.0;;
67429;SDS011;54298;52.076;5.264;2023-07-20T05:37:44;2.21;;;1.7;;
67429;SDS011;54298;52.076;5.264;2023-07-20T05:39:21;4.2;;;2.1;;
67429;SDS011;54298;52.076;5.264;2023-07-20T05:42:36;3.5;;;2.1;;
67429;SDS011;54298;52.076;5.264;2023-07-20T05:44:12;5.0;;;1.9;;
67429;SDS011;54298;52.076;5.264;2023-07-20T05:45:48;3.6;;;1.9;;
67429;SDS011;54298;52.076;5.264;2023-07-20T05:49:01;4.8;;;2.7;;
67429;SDS011;54298;52.076;5.264;2023-07-20T05:50:38;14.8;;;8.2;;
67429;SDS011;54298;52.076;5.264;2023-07-20T05:52:18;7.4;;;4.41;;
67429;SDS011;54298;52.076;5.264;2023-07-20T05:55:30;3.2;;;1.7;;
67429;SDS011;54298;52.076;5.264;2023-07-20T05:57:07;2.8;;;1.6;;
67429;SDS011;54298;52.076;5.264;2023-07-20T05:58:43;8.31;;;3.8;;
67429;SDS011;54298;52.076;5.264;2023-07-20T06:00:19;5.7;;;3.1;;
67429;SDS011;54298;52.076;5.264;2023-07-20T06:03:32;8.4;;;4.2;;
67429;SDS011;54298;52.076;5.264;2023-07-20T06:05:08;4.8;;;2.0;;
67429;SDS011;54298;52.076;5.264;2023-07-20T06:06:45;2.4;;;1.4;;
67429;SDS011;54298;52.076;5.264;2023-07-20T06:09:57;4.1;;;1.9;;
67429;SDS011;54298;52.076;5.264;2023-07-20T06:11:33;3.5;;;2.21;;
67429;SDS011;54298;52.076;5.264;2023-07-20T06:13:09;1.7;;;1.2;;
67429;SDS011;54298;52.076;5.264;2023-07-20T06:16:22;3.4;;;1.3;;
67429;SDS011;54298;52.076;5.264;2023-07-20T06:17:58;1.2;;;0.7;;
67429;SDS011;54298;52.076;5.264;2023-07-20T06:19:34;3.3;;;1.6;;
67429;SDS011;54298;52.076;5.264;2023-07-20T06:21:11;2.21;;;1.2;;
67429;SDS011;54298;52.076;5.264;2023-07-20T06:24:23;1.3;;;0.9;;
67429;SDS011;54298;52.076;5.264;2023-07-20T06:25:59;1.4;;;0.8;;
67429;SDS011;54298;52.076;5.264;2023-07-20T06:27:35;2.8;;;1.0;;
67429;SDS011;54298;52.076;5.264;2023-07-20T06:30:48;1.7;;;0.7;;
67429;SDS011;54298;52.076;5.264;2023-07-20T06:32:24;1.6;;;0.8;;
67429;SDS011;54298;52.076;5.264;2023-07-20T06:34:00;1.9;;;0.7;;
67429;SDS011;54298;52.076;5.264;2023-07-20T06:37:12;1.9;;;0.7;;
67429;SDS011;54298;52.076;5.264;2023-07-20T06:38:48;1.8;;;0.9;;
67429;SDS011;54298;52.076;5.264;2023-07-20T06:40:24;1.8;;;0.8;;
67429;SDS011;54298;52.076;5.264;2023-07-20T06:43:37;2.4;;;1.2;;
67429;SDS011;54298;52.076;5.264;2023-07-20T06:45:13;2.0;;;1.3;;
67429;SDS011;54298;52.076;5.264;2023-07-20T06:46:49;1.9;;;0.8;;
67429;SDS011;54298;52.076;5.264;2023-07-20T06:48:25;1.2;;;0.6;;
67429;SDS011;54298;52.076;5.264;2023-07-20T06:51:37;1.7;;;1.11;;
67429;SDS011;54298;52.076;5.264;2023-07-20T06:53:13;5.4;;;0.7;;
67429;SDS011;54298;52.076;5.264;2023-07-20T06:54:49;2.21;;;0.8;;
67429;SDS011;54298;52.076;5.264;2023-07-20T06:58:01;2.6;;;1.3;;
67429;SDS011;54298;52.076;5.264;2023-07-20T06:59:37;2.5;;;0.8;;
67429;SDS011;54298;52.076;5.264;2023-07-20T07:01:14;2.0;;;0.8;;
67429;SDS011;54298;52.076;5.264;2023-07-20T07:04:26;2.8;;;0.7;;
67429;SDS011;54298;52.076;5.264;2023-07-20T07:06:02;0.8;;;0.5;;
67429;SDS011;54298;52.076;5.264;2023-07-20T07:07:38;1.5;;;0.7;;
67429;SDS011;54298;52.076;5.264;2023-07-20T07:10:51;1.3;;;0.8;;
67429;SDS011;54298;52.076;5.264;2023-07-20T07:12:28;3.5;;;0.9;;
67429;SDS011;54298;52.076;5.264;2023-07-20T07:14:04;1.6;;;0.6;;
67429;SDS011;54298;52.076;5.264;2023-07-20T07:15:40;2.21;;;0.7;;
67429;SDS011;54298;52.076;5.264;2023-07-20T07:18:52;2.4;;;0.8;;
67429;SDS011;54298;52.076;5.264;2023-07-20T07:20:28;1.0;;;0.7;;
67429;SDS011;54298;52.076;5.264;2023-07-20T07:22:04;1.2;;;0.6;;
67429;SDS011;54298;52.076;5.264;2023-07-20T07:25:16;1.11;;;0.6;;
67429;SDS011;54298;52.076;5.264;2023-07-20T07:26:53;1.3;;;0.7;;
67429;SDS011;54298;52.076;5.264;2023-07-20T07:28:29;1.2;;;0.5;;
67429;SDS011;54298;52.076;5.264;2023-07-20T07:31:43;1.8;;;0.6;;
67429;SDS011;54298;52.076;5.264;2023-07-20T07:33:19;1.8;;;0.7;;
67429;SDS011;54298;52.076;5.264;2023-07-20T07:34:55;3.5;;;0.6;;
67429;SDS011;54298;52.076;5.264;2023-07-20T07:36:32;1.6;;;0.6;;
67429;SDS011;54298;52.076;5.264;2023-07-20T07:39:44;1.0;;;0.5;;
67429;SDS011;54298;52.076;5.264;2023-07-20T07:41:21;1.9;;;0.9;;
67429;SDS011;54298;52.076;5.264;2023-07-20T07:42:57;1.4;;;0.7;;
67429;SDS011;54298;52.076;5.264;2023-07-20T07:46:09;3.9;;;1.0;;
67429;SDS011;54298;52.076;5.264;2023-07-20T07:47:45;1.8;;;0.5;;
67429;SDS011;54298;52.076;5.264;2023-07-20T07:49:21;0.9;;;0.5;;
67429;SDS011;54298;52.076;5.264;2023-07-20T07:52:33;1.7;;;0.7;;
67429;SDS011;54298;52.076;5.264;2023-07-20T07:54:09;1.11;;;0.6;;
67429;SDS011;54298;52.076;5.264;2023-07-20T07:55:47;1.4;;;0.9;;
67429;SDS011;54298;52.076;5.264;2023-07-20T07:57:23;1.4;;;0.9;;
67429;SDS011;54298;52.076;5.264;2023-07-20T08:00:35;2.9;;;0.9;;
67429;SDS011;54298;52.076;5.264;2023-07-20T08:02:11;3.1;;;1.0;;
67429;SDS011;54298;52.076;5.264;2023-07-20T08:03:47;1.0;;;0.5;;
67429;SDS011;54298;52.076;5.264;2023-07-20T08:06:59;2.0;;;0.6;;
67429;SDS011;54298;52.076;5.264;2023-07-20T08:08:37;1.7;;;0.6;;
67429;SDS011;54298;52.076;5.264;2023-07-20T08:10:14;1.2;;;0.6;;
67429;SDS011;54298;52.076;5.264;2023-07-20T08:13:26;1.2;;;0.6;;
67429;SDS011;54298;52.076;5.264;2023-07-20T08:15:02;0.9;;;0.5;;
67429;SDS011;54298;52.076;5.264;2023-07-20T08:16:38;2.1;;;0.6;;
67429;SDS011;54298;52.076;5.264;2023-07-20T08:19:50;2.31;;;0.6;;
67429;SDS011;54298;52.076;5.264;2023-07-20T08:21:26;1.6;;;0.5;;
67429;SDS011;54298;52.076;5.264;2023-07-20T08:23:02;0.8;;;0.5;;
67429;SDS011;54298;52.076;5.264;2023-07-20T08:24:39;0.6;;;0.4;;
67429;SDS011;54298;52.076;5.264;2023-07-20T08:27:52;1.0;;;0.4;;
67429;SDS011;54298;52.076;5.264;2023-07-20T08:29:28;0.8;;;0.3;;
67429;SDS011;54298;52.076;5.264;2023-07-20T08:31:05;2.1;;;0.4;;
67429;SDS011;54298;52.076;5.264;2023-07-20T08:34:18;0.7;;;0.5;;
67429;SDS011;54298;52.076;5.264;2023-07-20T08:35:54;1.0;;;0.5;;
67429;SDS011;54298;52.076;5.264;2023-07-20T08:37:31;1.3;;;0.4;;
67429;SDS011;54298;52.076;5.264;2023-07-20T08:40:43;1.4;;;0.4;;
67429;SDS011;54298;52.076;5.264;2023-07-20T08:42:21;1.11;;;0.5;;
67429;SDS011;54298;52.076;5.264;2023-07-20T08:43:59;1.0;;;0.5;;
67429;SDS011;54298;52.076;5.264;2023-07-20T08:45:36;1.5;;;0.5;;
67429;SDS011;54298;52.076;5.264;2023-07-20T08:48:52;1.0;;;0.6;;
67429;SDS011;54298;52.076;5.264;2023-07-20T08:50:31;0.5;;;0.4;;
67429;SDS011;54298;52.076;5.264;2023-07-20T08:52:08;1.7;;;0.8;;
67429;SDS011;54298;52.076;5.264;2023-07-20T08:55:23;2.1;;;0.9;;
67429;SDS011;54298;52.076;5.264;2023-07-20T08:57:01;0.7;;;0.5;;
67429;SDS011;54298;52.076;5.264;2023-07-20T08:58:39;1.11;;;0.6;;
67429;SDS011;54298;52.076;5.264;2023-07-20T09:00:20;1.5;;;0.5;;
67429;SDS011;54298;52.076;5.264;2023-07-20T09:03:34;1.8;;;0.4;;
67429;SDS011;54298;52.076;5.264;2023-07-20T09:05:10;0.5;;;0.4;;
67429;SDS011;54298;52.076;5.264;2023-07-20T09:06:47;2.0;;;0.6;;
67429;SDS011;54298;52.076;5.264;2023-07-20T09:10:01;2.7;;;0.5;;
67429;SDS011;54298;52.076;5.264;2023-07-20T09:11:38;1.9;;;0.3;;
67429;SDS011;54298;52.076;5.264;2023-07-20T09:13:15;1.7;;;0.2;;
67429;SDS011;54298;52.076;5.264;2023-07-20T09:14:51;0.3;;;0.3;;
67429;SDS011;54298;52.076;5.264;2023-07-20T09:18:04;0.3;;;0.3;;
67429;SDS011;54298;52.076;5.264;2023-07-20T09:19:45;1.7;;;0.7;;
67429;SDS011;54298;52.076;5.264;2023-07-20T09:21:22;0.6;;;0.3;;
67429;SDS011;54298;52.076;5.264;2023-07-20T09:24:34;4.2;;;2.1;;
67429;SDS011;54298;52.076;5.264;2023-07-20T09:26:10;4.2;;;1.6;;
67429;SDS011;54298;52.076;5.264;2023-07-20T09:27:48;3.8;;;1.6;;
67429;SDS011;54298;52.076;5.264;2023-07-20T09:29:25;4.0;;;0.5;;
67429;SDS011;54298;52.076;5.264;2023-07-20T09:32:52;1.5;;;0.5;;
67429;SDS011;54298;52.076;5.264;2023-07-20T09:34:28;1.3;;;0.4;;
67429;SDS011;54298;52.076;5.264;2023-07-20T09:36:05;3.0;;;0.3;;
67429;SDS011;54298;52.076;5.264;2023-07-20T09:39:22;0.2;;;0.2;;
67429;SDS011;54298;52.076;5.264;2023-07-20T09:40:58;1.8;;;0.5;;
67429;SDS011;54298;52.076;5.264;2023-07-20T09:42:35;0.6;;;0.3;;
67429;SDS011;54298;52.076;5.264;2023-07-20T09:44:14;0.4;;;0.3;;
67429;SDS011;54298;52.076;5.264;2023-07-20T09:47:35;2.0;;;0.6;;
67429;SDS011;54298;52.076;5.264;2023-07-20T09:49:12;0.6;;;0.4;;
67429;SDS011;54298;52.076;5.264;2023-07-20T09:50:49;1.8;;;0.8;;
67429;SDS011;54298;52.076;5.264;2023-07-20T09:52:26;1.3;;;0.8;;
67429;SDS011;54298;52.076;5.264;2023-07-20T09:55:41;8.6;;;3.5;;
67429;SDS011;54298;52.076;5.264;2023-07-20T09:57:17;4.41;;;2.1;;
67429;SDS011;54298;52.076;5.264;2023-07-20T09:58:57;5.6;;;2.9;;
67429;SDS011;54298;52.076;5.264;2023-07-20T10:02:15;1.0;;;0.5;;
67429;SDS011;54298;52.076;5.264;2023-07-20T10:03:58;1.6;;;0.5;;
67429;SDS011;54298;52.076;5.264;2023-07-20T10:05:39;1.6;;;0.6;;
67429;SDS011;54298;52.076;5.264;2023-07-20T10:07:19;1.4;;;0.7;;
67429;SDS011;54298;52.076;5.264;2023-07-20T10:10:38;1.3;;;0.4;;
67429;SDS011;54298;52.076;5.264;2023-07-20T10:12:17;1.9;;;1.0;;
67429;SDS011;54298;52.076;5.264;2023-07-20T10:13:59;9.1;;;4.5;;
67429;SDS011;54298;52.076;5.264;2023-07-20T10:15:40;2.1;;;0.4;;
67429;SDS011;54298;52.076;5.264;2023-07-20T10:19:03;3.7;;;0.6;;
67429;SDS011;54298;52.076;5.264;2023-07-20T10:20:42;0.9;;;0.5;;
67429;SDS011;54298;52.076;5.264;2023-07-20T10:22:23;1.6;;;0.9;;
67429;SDS011;54298;52.076;5.264;2023-07-20T10:24:06;1.2;;;0.4;;
67429;SDS011;54298;52.076;5.264;2023-07-20T10:27:22;2.0;;;0.7;;
67429;SDS011;54298;52.076;5.264;2023-07-20T10:29:00;1.4;;;0.7;;
67429;SDS011;54298;52.076;5.264;2023-07-20T10:30:37;1.0;;;0.5;;
67429;SDS011;54298;52.076;5.264;2023-07-20T10:32:14;2.1;;;0.3;;
67429;SDS011;54298;52.076;5.264;2023-07-20T10:35:27;1.11;;;0.6;;
67429;SDS011;54298;52.076;5.264;2023-07-20T10:37:03;0.8;;;0.4;;
67429;SDS011;54298;52.076;5.264;2023-07-20T10:38:40;0.4;;;0.3;;
67429;SDS011;54298;52.076;5.264;2023-07-20T10:42:13;1.2;;;0.4;;
67429;SDS011;54298;52.076;5.264;2023-07-20T10:43:49;2.6;;;0.6;;
67429;SDS011;54298;52.076;5.264;2023-07-20T10:45:42;0.7;;;0.5;;
67429;SDS011;54298;52.076;5.264;2023-07-20T10:47:28;1.2;;;0.7;;
67429;SDS011;54298;52.076;5.264;2023-07-20T10:49:20;0.8;;;0.5;;
67429;SDS011;54298;52.076;5.264;2023-07-20T10:53:01;2.31;;;0.6;;
67429;SDS011;54298;52.076;5.264;2023-07-20T10:54:47;0.9;;;0.6;;
67429;SDS011;54298;52.076;5.264;2023-07-20T10:56:26;1.2;;;0.5;;
67429;SDS011;54298;52.076;5.264;2023-07-20T10:58:07;0.8;;;0.4;;
67429;SDS011;54298;52.076;5.264;2023-07-20T10:59:45;2.0;;;0.4;;
67429;SDS011;54298;52.076;5.264;2023-07-20T11:03:04;2.9;;;0.6;;
67429;SDS011;54298;52.076;5.264;2023-07-20T11:04:40;0.7;;;0.5;;
67429;SDS011;54298;52.076;5.264;2023-07-20T11:06:33;0.9;;;0.4;;
67429;SDS011;54298;52.076;5.264;2023-07-20T11:08:10;1.6;;;0.5;;
67429;SDS011;54298;52.076;5.264;2023-07-20T11:11:24;0.9;;;0.4;;
67429;SDS011;54298;52.076;5.264;2023-07-20T11:13:17;1.2;;;0.4;;
67429;SDS011;54298;52.076;5.264;2023-07-20T11:15:10;1.4;;;0.4;;
67429;SDS011;54298;52.076;5.264;2023-07-20T11:16:46;0.9;;;0.4;;
67429;SDS011;54298;52.076;5.264;2023-07-20T11:18:25;1.0;;;0.4;;
67429;SDS011;54298;52.076;5.264;2023-07-20T11:21:40;1.6;;;0.4;;
67429;SDS011;54298;52.076;5.264;2023-07-20T11:23:19;1.0;;;0.5;;
67429;SDS011;54298;52.076;5.264;2023-07-20T11:24:57;2.1;;;0.4;;
67429;SDS011;54298;52.076;5.264;2023-07-20T11:26:41;1.0;;;0.5;;
67429;SDS011;54298;52.076;5.264;2023-07-20T11:29:55;1.8;;;0.4;;
67429;SDS011;54298;52.076;5.264;2023-07-20T11:31:34;0.8;;;0.4;;
67429;SDS011;54298;52.076;5.264;2023-07-20T11:33:11;0.4;;;0.3;;
67429;SDS011;54298;52.076;5.264;2023-07-20T11:36:23;1.0;;;0.4;;
67429;SDS011;54298;52.076;5.264;2023-07-20T11:37:59;1.11;;;0.6;;
67429;SDS011;54298;52.076;5.264;2023-07-20T11:39:35;1.3;;;0.5;;
67429;SDS011;54298;52.076;5.264;2023-07-20T11:42:49;4.41;;;0.7;;
67429;SDS011;54298;52.076;5.264;2023-07-20T11:44:25;1.0;;;0.5;;
67429;SDS011;54298;52.076;5.264;2023-07-20T11:46:04;4.0;;;2.0;;
67429;SDS011;54298;52.076;5.264;2023-07-20T11:47:41;1.0;;;0.4;;
67429;SDS011;54298;52.076;5.264;2023-07-20T11:50:53;6.3;;;0.6;;
67429;SDS011;54298;52.076;5.264;2023-07-20T11:52:29;1.0;;;0.4;;
67429;SDS011;54298;52.076;5.264;2023-07-20T11:54:07;1.7;;;0.7;;
67429;SDS011;54298;52.076;5.264;2023-07-20T11:57:22;2.31;;;0.7;;
67429;SDS011;54298;52.076;5.264;2023-07-20T11:58:58;4.41;;;1.3;;
67429;SDS011;54298;52.076;5.264;2023-07-20T12:00:37;0.4;;;0.3;;
67429;SDS011;54298;52.076;5.264;2023-07-20T12:02:14;0.5;;;0.4;;
67429;SDS011;54298;52.076;5.264;2023-07-20T12:05:27;1.6;;;0.7;;
67429;SDS011;54298;52.076;5.264;2023-07-20T12:07:03;1.7;;;0.7;;
67429;SDS011;54298;52.076;5.264;2023-07-20T12:08:39;0.7;;;0.4;;
67429;SDS011;54298;52.076;5.264;2023-07-20T12:11:52;1.7;;;0.5;;
67429;SDS011;54298;52.076;5.264;2023-07-20T12:13:35;1.0;;;0.4;;
67429;SDS011;54298;52.076;5.264;2023-07-20T12:15:14;2.8;;;1.5;;
67429;SDS011;54298;52.076;5.264;2023-07-20T12:16:52;3.8;;;1.9;;
67429;SDS011;54298;52.076;5.264;2023-07-20T12:20:11;2.5;;;1.5;;
67429;SDS011;54298;52.076;5.264;2023-07-20T12:21:47;1.4;;;0.6;;
67429;SDS011;54298;52.076;5.264;2023-07-20T12:23:24;7.3;;;2.31;;
67429;SDS011;54298;52.076;5.264;2023-07-20T12:26:36;1.5;;;0.9;;
67429;SDS011;54298;52.076;5.264;2023-07-20T12:28:13;2.6;;;1.4;;
67429;SDS011;54298;52.076;5.264;2023-07-20T12:29:51;1.5;;;1.0;;
67429;SDS011;54298;52.076;5.264;2023-07-20T12:31:27;1.0;;;0.7;;
67429;SDS011;54298;52.076;5.264;2023-07-20T12:34:41;2.4;;;1.4;;
67429;SDS011;54298;52.076;5.264;2023-07-20T12:36:17;5.9;;;2.7;;
67429;SDS011;54298;52.076;5.264;2023-07-20T12:37:54;4.7;;;2.31;;
67429;SDS011;54298;52.076;5.264;2023-07-20T12:41:06;4.7;;;2.6;;
67429;SDS011;54298;52.076;5.264;2023-07-20T12:42:42;1.7;;;0.6;;
67429;SDS011;54298;52.076;5.264;2023-07-20T12:44:18;2.5;;;0.8;;
67429;SDS011;54298;52.076;5.264;2023-07-20T12:47:32;1.6;;;0.6;;
67429;SDS011;54298;52.076;5.264;2023-07-20T12:49:08;1.9;;;0.7;;
67429;SDS011;54298;52.076;5.264;2023-07-20T12:50:44;4.2;;;0.9;;
67429;SDS011;54298;52.076;5.264;2023-07-20T12:53:56;1.9;;;1.11;;
67429;SDS011;54298;52.076;5.264;2023-07-20T12:55:32;3.3;;;0.9;;
67429;SDS011;54298;52.076;5.264;2023-07-20T12:57:08;0.9;;;0.6;;
67429;SDS011;54298;52.076;5.264;2023-07-20T12:58:44;1.4;;;0.8;;
67429;SDS011;54298;52.076;5.264;2023-07-20T13:01:57;1.2;;;0.6;;